Time;durP1;ratioP1;P1;durP2;ratioP2;P2;SDS_P1;SDS_P2;PMS_P1;PMS_P2;Temp;Humidity;BMP_temperature;BMP_pressure;BME280_temperature;BME280_humidity;BME280_pressure;Samples;Min_cycle;Max_cycle;Signal;HPM_P1;HPM_P2
2022/03/02 00:00:43;;;;;;;;;;;18.30;99.90;;;;;;5038338;28;19936;-57
2022/03/02 00:03:10;;;;;;;;;;;18.30;99.90;;;;;;5057568;28;19929;-62
2022/03/02 00:05:37;;;;;;;;;;;18.30;99.90;;;;;;5060257;28;19928;-60
2022/03/02 00:08:06;;;;;;;;;;;18.30;99.90;;;;;;5047423;28;19933;-60
2022/03/02 00:10:33;;;;;;;;;;;18.30;99.90;;;;;;5049708;28;19929;-60
2022/03/02 00:13:01;;;;;;;;;;;18.30;99.90;;;;;;5055717;28;19944;-57
2022/03/02 00:15:28;;;;;;;;;;;18.30;99.90;;;;;;5043697;28;20404;-58
2022/03/02 00:17:56;;;;;;;;;;;18.30;99.90;;;;;;5035476;28;20437;-57
2022/03/02 00:20:23;;;;;;;;;;;18.20;99.90;;;;;;5037866;28;19928;-57
2022/03/02 00:22:52;;;;;;;;;;;18.20;99.90;;;;;;5043138;28;20038;-58
2022/03/02 00:25:20;;;;;;;;;;;18.20;99.90;;;;;;5041938;28;19929;-60
2022/03/02 00:27:47;;;;;;;;;;;18.20;99.90;;;;;;5041180;28;20399;-59
2022/03/02 00:30:14;;;;;;;;;;;18.20;99.90;;;;;;5029120;28;19935;-58
2022/03/02 00:32:42;;;;;;;;;;;18.20;99.90;;;;;;5037483;28;19925;-59
2022/03/02 00:35:09;;;;;;;;;;;18.20;99.90;;;;;;5037404;28;19933;-57
2022/03/02 00:37:36;;;;;;;;;;;18.20;99.90;;;;;;5043377;28;19925;-56
2022/03/02 00:40:03;;;;;;;;;;;18.20;99.90;;;;;;5042305;28;19929;-57
2022/03/02 00:42:31;;;;;;;;;;;18.20;99.90;;;;;;5039775;28;20471;-56
2022/03/02 00:44:58;;;;;;;;;;;18.10;99.90;;;;;;5041652;28;19929;-59
2022/03/02 00:47:25;;;;;;;;;;;18.20;99.90;;;;;;5046182;28;19955;-57
2022/03/02 00:49:52;;;;;;;;;;;18.10;99.90;;;;;;5043856;28;19928;-58
2022/03/02 00:52:19;;;;;;;;;;;18.10;99.90;;;;;;5046333;28;19936;-58
2022/03/02 00:54:47;;;;;;;;;;;18.10;99.90;;;;;;5048252;28;19936;-60
2022/03/02 00:57:14;;;;;;;;;;;18.10;99.90;;;;;;5040457;28;19955;-57
2022/03/02 00:59:42;;;;;;;;;;;18.10;99.90;;;;;;5044377;28;20316;-58
2022/03/02 01:02:09;;;;;;;;;;;18.10;99.90;;;;;;5046747;28;19939;-59
2022/03/02 01:04:36;;;;;;;;;;;18.10;99.90;;;;;;5041985;28;19996;-62
2022/03/02 01:07:03;;;;;;;;;;;18.10;99.90;;;;;;5050377;28;20009;-62
2022/03/02 01:09:30;;;;;;;;;;;18.10;99.90;;;;;;5054814;28;19936;-60
2022/03/02 01:11:58;;;;;;;;;;;18.10;99.90;;;;;;5044277;28;19928;-58
2022/03/02 01:14:25;;;;;;;;;;;18.10;99.90;;;;;;5043086;28;19935;-57
2022/03/02 01:16:52;;;;;;;;;;;18.00;99.90;;;;;;5032277;28;19929;-57
2022/03/02 01:19:19;;;;;;;;;;;18.00;99.90;;;;;;5038714;28;19936;-58
2022/03/02 01:21:47;;;;;;;;;;;18.10;99.90;;;;;;5040069;28;19940;-58
2022/03/02 01:24:14;;;;;;;;;;;18.00;99.90;;;;;;5032278;28;19929;-57
2022/03/02 01:26:41;;;;;;;;;;;18.00;99.90;;;;;;5039096;28;19932;-58
2022/03/02 01:29:08;;;;;;;;;;;18.00;99.90;;;;;;5041767;28;20517;-58
2022/03/02 01:31:35;;;;;;;;;;;18.00;99.90;;;;;;5034832;28;20304;-59
2022/03/02 01:34:03;;;;;;;;;;;18.00;99.90;;;;;;5040054;28;19936;-56
2022/03/02 01:36:30;;;;;;;;;;;18.00;99.90;;;;;;5036586;28;20259;-58
2022/03/02 01:38:57;;;;;;;;;;;18.00;99.90;;;;;;5035072;28;19929;-58
2022/03/02 01:41:25;;;;;;;;;;;18.00;99.90;;;;;;5046511;28;20124;-58
2022/03/02 01:43:53;;;;;;;;;;;18.00;99.90;;;;;;5042858;28;19928;-57
2022/03/02 01:46:21;;;;;;;;;;;18.00;99.90;;;;;;5034969;28;20415;-56
2022/03/02 01:48:48;;;;;;;;;;;17.90;99.90;;;;;;5038870;28;20376;-57
2022/03/02 01:51:16;;;;;;;;;;;17.90;99.90;;;;;;5040032;28;20265;-58
2022/03/02 01:53:43;;;;;;;;;;;17.90;99.90;;;;;;5044614;28;19965;-56
2022/03/02 01:56:10;;;;;;;;;;;18.00;99.90;;;;;;5042051;28;20655;-57
2022/03/02 01:58:37;;;;;;;;;;;17.90;99.90;;;;;;5042847;28;19936;-58
2022/03/02 02:01:05;;;;;;;;;;;17.90;99.90;;;;;;5031530;28;20468;-56
2022/03/02 02:03:33;;;;;;;;;;;17.90;99.90;;;;;;5036424;28;19925;-58
2022/03/02 02:06:01;;;;;;;;;;;17.90;99.90;;;;;;5043923;28;19928;-57
2022/03/02 02:08:28;;;;;;;;;;;17.90;99.90;;;;;;5045307;28;19929;-59
2022/03/02 02:10:58;;;;;;;;;;;17.90;99.90;;;;;;5034312;28;20404;-58
2022/03/02 02:13:25;;;;;;;;;;;17.90;99.90;;;;;;5037832;28;20111;-58
2022/03/02 02:15:53;;;;;;;;;;;17.90;99.90;;;;;;5034646;28;20377;-55
2022/03/02 02:18:20;;;;;;;;;;;17.90;99.90;;;;;;5040062;28;19940;-57
2022/03/02 02:20:48;;;;;;;;;;;17.80;99.90;;;;;;5045693;28;19936;-57
2022/03/02 02:23:15;;;;;;;;;;;17.80;99.90;;;;;;5034783;28;19929;-57
2022/03/02 02:25:43;;;;;;;;;;;17.80;99.90;;;;;;5039280;28;19928;-59
2022/03/02 02:28:12;;;;;;;;;;;17.80;99.90;;;;;;5034707;28;20331;-53
2022/03/02 02:30:39;;;;;;;;;;;17.80;99.90;;;;;;5037699;28;20348;-56
2022/03/02 02:33:06;;;;;;;;;;;17.80;99.90;;;;;;5039574;28;19932;-54
2022/03/02 02:35:33;;;;;;;;;;;17.80;99.90;;;;;;5033819;28;20035;-59
2022/03/02 02:38:00;;;;;;;;;;;17.80;99.90;;;;;;5045771;28;20288;-56
2022/03/02 02:40:28;;;;;;;;;;;17.80;99.90;;;;;;5043411;28;19932;-56
2022/03/02 02:42:55;;;;;;;;;;;17.80;99.90;;;;;;5038872;28;19948;-57
2022/03/02 02:45:24;;;;;;;;;;;17.80;99.90;;;;;;5043318;28;19936;-57
2022/03/02 02:47:55;;;;;;;;;;;17.80;99.90;;;;;;5037600;28;20373;-57
2022/03/02 02:50:23;;;;;;;;;;;17.80;99.90;;;;;;5039627;28;19928;-60
2022/03/02 02:52:51;;;;;;;;;;;17.80;99.90;;;;;;5041958;28;20304;-57
2022/03/02 02:55:19;;;;;;;;;;;17.70;99.90;;;;;;5050424;28;19928;-61
2022/03/02 02:57:46;;;;;;;;;;;17.80;99.90;;;;;;5043893;28;20660;-59
2022/03/02 03:00:15;;;;;;;;;;;17.70;99.90;;;;;;5041544;28;19929;-63
2022/03/02 03:02:42;;;;;;;;;;;17.70;99.90;;;;;;5065210;28;19939;-61
2022/03/02 03:05:14;;;;;;;;;;;17.70;99.90;;;;;;5038947;28;19929;-62
2022/03/02 03:07:42;;;;;;;;;;;17.70;99.90;;;;;;5044909;28;20039;-60
2022/03/02 03:10:10;;;;;;;;;;;17.70;99.90;;;;;;5038877;28;19929;-57
2022/03/02 03:12:38;;;;;;;;;;;17.70;99.90;;;;;;5042650;28;19936;-55
2022/03/02 03:15:06;;;;;;;;;;;17.70;99.90;;;;;;5034170;28;19929;-61
2022/03/02 03:17:33;;;;;;;;;;;17.70;99.90;;;;;;5047115;28;19925;-57
2022/03/02 03:20:01;;;;;;;;;;;17.80;99.90;;;;;;5040519;28;19929;-57
2022/03/02 03:22:28;;;;;;;;;;;17.70;99.90;;;;;;5049576;28;19940;-58
2022/03/02 03:24:56;;;;;;;;;;;17.70;99.90;;;;;;5045992;28;19929;-54
2022/03/02 03:27:23;;;;;;;;;;;17.70;99.90;;;;;;5052161;28;19932;-57
2022/03/02 03:29:50;;;;;;;;;;;17.70;99.90;;;;;;5044212;28;19934;-58
2022/03/02 03:32:17;;;;;;;;;;;17.70;99.90;;;;;;5041078;28;19925;-56
2022/03/02 03:34:45;;;;;;;;;;;17.70;99.90;;;;;;5040354;28;19928;-59
2022/03/02 03:37:12;;;;;;;;;;;17.70;99.90;;;;;;5043798;28;20369;-58
2022/03/02 03:39:42;;;;;;;;;;;17.70;99.90;;;;;;5043646;28;19929;-59
2022/03/02 03:42:09;;;;;;;;;;;17.70;99.90;;;;;;5045970;28;19959;-59
2022/03/02 03:44:37;;;;;;;;;;;17.70;99.90;;;;;;5043836;28;19940;-57
2022/03/02 03:47:04;;;;;;;;;;;17.70;99.90;;;;;;5046886;28;20383;-60
2022/03/02 03:49:32;;;;;;;;;;;17.70;99.90;;;;;;5039778;28;19929;-59
2022/03/02 03:51:59;;;;;;;;;;;17.60;99.90;;;;;;5049146;28;19924;-60
2022/03/02 03:54:27;;;;;;;;;;;17.70;99.90;;;;;;5042446;28;19936;-59
2022/03/02 03:56:54;;;;;;;;;;;17.60;99.90;;;;;;5042991;28;19941;-58
2022/03/02 03:59:21;;;;;;;;;;;17.70;99.90;;;;;;5031817;28;19929;-56
2022/03/02 04:01:48;;;;;;;;;;;17.70;99.90;;;;;;5047314;28;19929;-59
2022/03/02 04:04:16;;;;;;;;;;;17.70;99.90;;;;;;5051128;28;19936;-58
2022/03/02 04:06:43;;;;;;;;;;;17.70;99.90;;;;;;5047580;28;19940;-60
2022/03/02 04:09:10;;;;;;;;;;;17.70;99.90;;;;;;5045342;28;20043;-57
2022/03/02 04:11:38;;;;;;;;;;;17.80;99.90;;;;;;5048319;28;19936;-61
2022/03/02 04:14:05;;;;;;;;;;;17.70;99.90;;;;;;5058064;28;19933;-61
2022/03/02 04:16:33;;;;;;;;;;;17.80;99.90;;;;;;5055100;28;20403;-63
2022/03/02 04:19:00;;;;;;;;;;;17.80;99.90;;;;;;5037490;28;19924;-60
2022/03/02 04:21:28;;;;;;;;;;;17.90;99.90;;;;;;5060915;28;19932;-60
2022/03/02 04:23:55;;;;;;;;;;;18.00;99.90;;;;;;5038831;28;20011;-66
2022/03/02 04:26:22;;;;;;;;;;;18.10;99.90;;;;;;5052273;28;19928;-59
2022/03/02 04:28:50;;;;;;;;;;;18.10;99.90;;;;;;5047487;28;20364;-59
2022/03/02 04:31:17;;;;;;;;;;;18.00;99.90;;;;;;5038824;28;19944;-58
2022/03/02 04:33:44;;;;;;;;;;;18.10;99.90;;;;;;5049501;28;20443;-59
2022/03/02 04:36:11;;;;;;;;;;;18.00;99.90;;;;;;5055144;28;19932;-60
2022/03/02 04:38:38;;;;;;;;;;;18.00;99.90;;;;;;5052992;28;19928;-60
2022/03/02 04:41:06;;;;;;;;;;;18.00;99.90;;;;;;5058586;28;19948;-61
2022/03/02 04:43:33;;;;;;;;;;;17.90;99.90;;;;;;5054238;28;19925;-58
2022/03/02 04:46:00;;;;;;;;;;;17.90;99.90;;;;;;5049530;28;19936;-58
2022/03/02 04:48:27;;;;;;;;;;;17.90;99.90;;;;;;5041703;28;19925;-57
2022/03/02 04:50:54;;;;;;;;;;;17.90;99.90;;;;;;5050254;28;20286;-61
2022/03/02 04:53:23;;;;;;;;;;;17.90;99.90;;;;;;5057580;28;19994;-64
2022/03/02 04:55:52;;;;;;;;;;;17.90;99.90;;;;;;5056389;28;19929;-61
2022/03/02 04:58:19;;;;;;;;;;;18.00;99.90;;;;;;5053118;28;19936;-58
2022/03/02 05:00:46;;;;;;;;;;;18.10;99.90;;;;;;5046085;28;19940;-61
2022/03/02 05:03:14;;;;;;;;;;;18.20;99.90;;;;;;5036970;28;19932;-57
2022/03/02 05:05:42;;;;;;;;;;;18.30;99.90;;;;;;5044781;28;19925;-59
2022/03/02 05:08:09;;;;;;;;;;;18.40;99.90;;;;;;5048040;28;20048;-62
2022/03/02 05:10:36;;;;;;;;;;;18.50;99.90;;;;;;5032341;28;19925;-56
2022/03/02 05:13:04;;;;;;;;;;;18.60;99.90;;;;;;5031353;28;19929;-58
2022/03/02 05:15:31;;;;;;;;;;;18.70;99.90;;;;;;5042926;28;19943;-56
2022/03/02 05:17:59;;;;;;;;;;;18.80;99.90;;;;;;5030997;28;19934;-57
2022/03/02 05:20:26;;;;;;;;;;;18.90;99.90;;;;;;5038146;28;19929;-60
2022/03/02 05:22:53;;;;;;;;;;;19.00;99.90;;;;;;5045078;28;20620;-58
2022/03/02 05:25:20;;;;;;;;;;;19.10;99.90;;;;;;5071062;28;19932;-57
2022/03/02 05:27:50;;;;;;;;;;;19.30;99.90;;;;;;5029650;28;19929;-58
2022/03/02 05:30:18;;;;;;;;;;;19.40;99.90;;;;;;5044652;28;19940;-57
2022/03/02 05:32:45;;;;;;;;;;;19.40;99.90;;;;;;5047451;28;19929;-60
2022/03/02 05:35:13;;;;;;;;;;;19.60;99.90;;;;;;5042610;28;19924;-62
2022/03/02 05:37:42;;;;;;;;;;;19.70;99.90;;;;;;5044415;28;19929;-60
2022/03/02 05:40:12;;;;;;;;;;;19.80;99.90;;;;;;5049740;28;19940;-63
2022/03/02 05:42:39;;;;;;;;;;;19.90;99.90;;;;;;5044800;28;19933;-61
2022/03/02 05:45:07;;;;;;;;;;;20.00;99.90;;;;;;5051073;28;19940;-58
2022/03/02 05:47:35;;;;;;;;;;;20.10;99.90;;;;;;5029407;28;19928;-59
2022/03/02 05:50:03;;;;;;;;;;;20.20;99.90;;;;;;5048384;28;19940;-60
2022/03/02 05:52:30;;;;;;;;;;;20.30;99.90;;;;;;5038370;28;19925;-59
2022/03/02 05:54:58;;;;;;;;;;;20.50;99.90;;;;;;5025372;28;19948;-62
2022/03/02 05:57:25;;;;;;;;;;;20.60;99.90;;;;;;5061823;28;19924;-60
2022/03/02 05:59:52;;;;;;;;;;;20.60;99.90;;;;;;5056266;28;19929;-59
2022/03/02 06:02:19;;;;;;;;;;;20.70;99.90;;;;;;5043038;28;19929;-60
2022/03/02 06:04:47;;;;;;;;;;;20.70;99.90;;;;;;5038852;28;19955;-60
2022/03/02 06:07:14;;;;;;;;;;;20.70;99.90;;;;;;5040358;28;20423;-61
2022/03/02 06:09:42;;;;;;;;;;;20.70;99.90;;;;;;5044961;28;19951;-62
2022/03/02 06:12:10;;;;;;;;;;;20.80;99.90;;;;;;5045592;28;20408;-62
2022/03/02 06:14:37;;;;;;;;;;;20.70;99.90;;;;;;5038553;28;19932;-60
2022/03/02 06:17:04;;;;;;;;;;;20.80;99.90;;;;;;5043683;28;19947;-58
2022/03/02 06:19:33;;;;;;;;;;;20.70;99.90;;;;;;5042025;28;19932;-61
2022/03/02 06:22:04;;;;;;;;;;;20.60;99.90;;;;;;5045722;28;19932;-58
2022/03/02 06:24:31;;;;;;;;;;;20.60;99.90;;;;;;5071413;28;19936;-57
2022/03/02 06:26:59;;;;;;;;;;;20.60;99.90;;;;;;5031872;28;19932;-61
2022/03/02 06:29:26;;;;;;;;;;;20.70;99.90;;;;;;5037128;28;20419;-61
2022/03/02 06:31:54;;;;;;;;;;;20.70;99.90;;;;;;5046230;28;19936;-61
2022/03/02 06:34:21;;;;;;;;;;;20.70;99.90;;;;;;5041683;28;19932;-61
2022/03/02 06:36:50;;;;;;;;;;;20.70;99.90;;;;;;5051593;28;19935;-56
2022/03/02 06:39:18;;;;;;;;;;;20.70;99.90;;;;;;5042538;28;19936;-60
2022/03/02 06:41:46;;;;;;;;;;;20.70;99.90;;;;;;5034276;28;20396;-60
2022/03/02 06:44:19;;;;;;;;;;;20.70;99.90;;;;;;5048111;28;19937;-60
2022/03/02 06:46:47;;;;;;;;;;;20.70;99.90;;;;;;5047191;28;19929;-58
2022/03/02 06:49:44;;;;;;;;;;;20.60;99.90;;;;;;5042986;28;19935;-59
2022/03/02 06:52:16;;;;;;;;;;;20.60;99.90;;;;;;5061897;28;20308;-60
2022/03/02 06:54:46;;;;;;;;;;;20.60;99.90;;;;;;5028303;28;20408;-59
2022/03/02 06:57:15;;;;;;;;;;;20.50;99.90;;;;;;5048436;28;19975;-57
2022/03/02 06:59:44;;;;;;;;;;;20.50;99.90;;;;;;5045464;28;19928;-57
2022/03/02 07:02:15;;;;;;;;;;;20.50;99.90;;;;;;5037384;28;19929;-61
2022/03/02 07:04:43;;;;;;;;;;;20.50;99.90;;;;;;5040375;28;19925;-62
2022/03/02 07:07:11;;;;;;;;;;;20.40;99.90;;;;;;5044776;28;19935;-58
2022/03/02 07:09:39;;;;;;;;;;;20.40;99.90;;;;;;5036378;28;19933;-58
2022/03/02 07:12:07;;;;;;;;;;;20.30;99.90;;;;;;5038946;28;20420;-64
2022/03/02 07:14:35;;;;;;;;;;;20.30;99.90;;;;;;5031091;28;19928;-62
2022/03/02 07:17:04;;;;;;;;;;;20.20;99.90;;;;;;5040626;28;19971;-62
2022/03/02 07:19:32;;;;;;;;;;;20.10;99.20;;;;;;5078246;28;19929;-61
2022/03/02 07:22:04;;;;;;;;;;;19.90;96.40;;;;;;5052200;28;19944;-62
2022/03/02 07:24:35;;;;;;;;;;;19.60;94.30;;;;;;5055041;28;19935;-57
2022/03/02 07:27:03;;;;;;;;;;;19.60;93.20;;;;;;5048009;28;20031;-61
2022/03/02 07:29:33;;;;;;;;;;;19.70;92.90;;;;;;5043115;28;20304;-62
2022/03/02 07:32:01;;;;;;;;;;;19.80;93.70;;;;;;5078573;28;19924;-62
2022/03/02 07:34:30;;;;;;;;;;;20.00;94.20;;;;;;5058243;28;20293;-65
2022/03/02 07:36:59;;;;;;;;;;;20.20;94.80;;;;;;5048032;28;20293;-62
2022/03/02 07:39:27;;;;;;;;;;;20.30;95.40;;;;;;5047469;28;19929;-63
2022/03/02 07:41:56;;;;;;;;;;;20.50;96.20;;;;;;5043405;28;19944;-61
2022/03/02 07:44:23;;;;;;;;;;;20.70;96.50;;;;;;5047078;28;19944;-66
2022/03/02 07:46:55;;;;;;;;;;;20.80;96.80;;;;;;5048785;28;19936;-64
2022/03/02 07:49:23;;;;;;;;;;;20.90;97.20;;;;;;5035711;28;20061;-63
2022/03/02 07:51:50;;;;;;;;;;;21.00;97.20;;;;;;5046420;28;21902;-63
2022/03/02 07:54:20;;;;;;;;;;;21.10;97.40;;;;;;5041997;28;20328;-64
2022/03/02 07:56:47;;;;;;;;;;;21.00;94.20;;;;;;5041819;28;19940;-65
2022/03/02 07:59:15;;;;;;;;;;;20.90;94.60;;;;;;5039958;28;19940;-61
2022/03/02 08:01:43;;;;;;;;;;;21.00;94.90;;;;;;5039029;28;19940;-64
2022/03/02 08:04:10;;;;;;;;;;;21.10;95.50;;;;;;5044062;28;19940;-64
2022/03/02 08:06:39;;;;;;;;;;;21.00;95.70;;;;;;5039578;28;19940;-62
2022/03/02 08:09:07;;;;;;;;;;;21.10;95.90;;;;;;5039901;28;19940;-61
2022/03/02 08:11:37;;;;;;;;;;;21.00;96.40;;;;;;5039302;28;19929;-62
2022/03/02 08:14:04;;;;;;;;;;;21.00;96.60;;;;;;5042065;28;20398;-62
2022/03/02 08:16:32;;;;;;;;;;;21.00;96.90;;;;;;5039205;28;19956;-63
2022/03/02 08:19:01;;;;;;;;;;;20.90;97.30;;;;;;5038934;28;19943;-62
2022/03/02 08:21:30;;;;;;;;;;;20.80;97.70;;;;;;5036565;28;19955;-62
2022/03/02 08:23:58;;;;;;;;;;;20.70;97.80;;;;;;5039704;28;20484;-63
2022/03/02 08:26:25;;;;;;;;;;;20.60;98.10;;;;;;5041893;28;20436;-61
2022/03/02 08:28:54;;;;;;;;;;;20.60;98.50;;;;;;5039746;28;19965;-60
2022/03/02 08:31:23;;;;;;;;;;;20.60;98.70;;;;;;5040236;28;20299;-62
2022/03/02 08:33:51;;;;;;;;;;;20.60;98.70;;;;;;5049457;28;19939;-65
2022/03/02 08:36:21;;;;;;;;;;;20.50;99.10;;;;;;5056091;28;19943;-66
2022/03/02 08:38:49;;;;;;;;;;;20.50;99.20;;;;;;5054536;28;19929;-66
2022/03/02 08:41:18;;;;;;;;;;;20.50;99.40;;;;;;5036901;28;19933;-64
2022/03/02 08:43:46;;;;;;;;;;;20.50;99.50;;;;;;5048706;28;19939;-63
2022/03/02 08:46:14;;;;;;;;;;;20.50;99.60;;;;;;5045275;28;19966;-66
2022/03/02 08:48:47;;;;;;;;;;;20.40;99.90;;;;;;5041509;28;20328;-60
2022/03/02 08:51:14;;;;;;;;;;;20.40;99.90;;;;;;5036604;28;20307;-61
2022/03/02 08:53:43;;;;;;;;;;;20.40;99.90;;;;;;5038521;28;19929;-63
2022/03/02 08:56:10;;;;;;;;;;;20.30;99.90;;;;;;5032215;28;20399;-63
2022/03/02 08:58:38;;;;;;;;;;;20.30;99.90;;;;;;5035945;28;19979;-61
2022/03/02 09:01:06;;;;;;;;;;;20.20;99.90;;;;;;5029592;28;19928;-61
2022/03/02 09:03:42;;;;;;;;;;;20.20;99.90;;;;;;5039221;28;19936;-62
2022/03/02 09:06:12;;;;;;;;;;;20.20;99.90;;;;;;5042804;28;19935;-62
2022/03/02 09:08:39;;;;;;;;;;;20.30;99.90;;;;;;5043765;28;19929;-62
2022/03/02 09:11:07;;;;;;;;;;;20.40;99.90;;;;;;5038352;28;19932;-62
2022/03/02 09:13:35;;;;;;;;;;;20.40;99.90;;;;;;5040268;28;19933;-62
2022/03/02 09:16:03;;;;;;;;;;;20.60;99.90;;;;;;5040921;28;20415;-63
2022/03/02 09:18:30;;;;;;;;;;;20.70;99.80;;;;;;5033944;28;19929;-60
2022/03/02 09:21:00;;;;;;;;;;;20.80;99.70;;;;;;5039920;28;20318;-61
2022/03/02 09:23:29;;;;;;;;;;;20.90;99.60;;;;;;5040051;28;19933;-59
2022/03/02 09:26:00;;;;;;;;;;;20.90;99.70;;;;;;5038703;28;19951;-63
2022/03/02 09:28:32;;;;;;;;;;;20.90;99.80;;;;;;5040990;28;19940;-61
2022/03/02 09:31:02;;;;;;;;;;;21.00;99.90;;;;;;5038867;28;19933;-62
2022/03/02 09:33:31;;;;;;;;;;;20.90;99.90;;;;;;5041766;28;19943;-62
2022/03/02 09:36:00;;;;;;;;;;;21.00;99.90;;;;;;5043685;28;20300;-59
2022/03/02 09:38:30;;;;;;;;;;;21.00;99.90;;;;;;5039390;28;20344;-61
2022/03/02 09:41:00;;;;;;;;;;;21.00;99.90;;;;;;5039836;28;19933;-59
2022/03/02 09:43:30;;;;;;;;;;;20.90;99.90;;;;;;5044338;28;20265;-60
2022/03/02 09:46:00;;;;;;;;;;;21.00;99.90;;;;;;5043691;28;20697;-60
2022/03/02 09:48:30;;;;;;;;;;;20.90;99.90;;;;;;5043511;28;19933;-62
2022/03/02 09:51:00;;;;;;;;;;;20.90;99.90;;;;;;5035784;28;19940;-61
2022/03/02 09:53:29;;;;;;;;;;;20.90;99.90;;;;;;5037458;28;20529;-62
2022/03/02 09:55:59;;;;;;;;;;;20.80;99.90;;;;;;5040305;28;19933;-66
2022/03/02 09:58:27;;;;;;;;;;;20.80;99.90;;;;;;5038699;28;19925;-65
2022/03/02 10:00:57;;;;;;;;;;;20.80;99.90;;;;;;5037790;28;20073;-62
2022/03/02 10:03:27;;;;;;;;;;;20.80;99.90;;;;;;5038197;28;19929;-62
2022/03/02 10:06:01;;;;;;;;;;;20.80;99.90;;;;;;5039124;28;19943;-61
2022/03/02 10:08:32;;;;;;;;;;;20.80;99.90;;;;;;5041240;28;19940;-64
2022/03/02 10:11:02;;;;;;;;;;;20.80;99.90;;;;;;5040063;28;20388;-66
2022/03/02 10:13:30;;;;;;;;;;;20.80;99.90;;;;;;5037247;28;20105;-64
2022/03/02 10:15:58;;;;;;;;;;;20.70;99.90;;;;;;5041523;28;19933;-63
2022/03/02 10:18:25;;;;;;;;;;;20.60;99.90;;;;;;5037612;28;19932;-63
2022/03/02 10:20:59;;;;;;;;;;;20.60;99.90;;;;;;5039787;28;19933;-64
2022/03/02 10:23:32;;;;;;;;;;;20.60;99.90;;;;;;5040298;28;19932;-62
2022/03/02 10:26:08;;;;;;;;;;;20.60;99.90;;;;;;5039084;28;20372;-68
2022/03/02 10:28:44;;;;;;;;;;;20.50;99.90;;;;;;5065266;28;20565;-66
2022/03/02 10:31:38;;;;;;;;;;;20.50;99.90;;;;;;5052402;28;19925;-68
2022/03/02 10:34:10;;;;;;;;;;;20.40;99.90;;;;;;5069871;28;20399;-66
2022/03/02 10:36:42;;;;;;;;;;;20.40;99.90;;;;;;5049736;28;19940;-67
2022/03/02 10:39:27;;;;;;;;;;;20.30;99.90;;;;;;5074142;28;20372;-67
2022/03/02 10:42:00;;;;;;;;;;;20.30;99.90;;;;;;5048098;28;20339;-64
2022/03/02 10:44:50;;;;;;;;;;;20.30;99.90;;;;;;5036372;28;19928;-65
2022/03/02 10:47:20;;;;;;;;;;;20.40;99.90;;;;;;5053395;28;20399;-64
2022/03/02 10:49:50;;;;;;;;;;;20.50;99.90;;;;;;5049630;28;19939;-62
2022/03/02 10:52:19;;;;;;;;;;;20.60;99.90;;;;;;5049380;28;19933;-69
2022/03/02 10:54:49;;;;;;;;;;;20.70;99.90;;;;;;5077888;28;19933;-65
2022/03/02 10:57:21;;;;;;;;;;;20.80;99.90;;;;;;5049252;28;20509;-62
2022/03/02 10:59:54;;;;;;;;;;;20.90;99.90;;;;;;5044251;28;20312;-62
2022/03/02 11:02:22;;;;;;;;;;;21.00;99.90;;;;;;5046623;28;19932;-64
2022/03/02 11:04:53;;;;;;;;;;;21.00;99.90;;;;;;5031304;28;19933;-63
2022/03/02 11:07:25;;;;;;;;;;;21.00;99.90;;;;;;5049378;28;20416;-65
2022/03/02 11:09:52;;;;;;;;;;;21.10;99.90;;;;;;5049952;28;19936;-65
2022/03/02 11:12:37;;;;;;;;;;;21.00;98.60;;;;;;5046957;28;20392;-64
2022/03/02 11:15:12;;;;;;;;;;;20.90;98.50;;;;;;5052848;28;19948;-65
2022/03/02 11:17:56;;;;;;;;;;;21.00;98.70;;;;;;5034667;28;19925;-66
2022/03/02 11:20:29;;;;;;;;;;;20.90;99.10;;;;;;5051470;28;20008;-63
2022/03/02 11:22:59;;;;;;;;;;;20.90;99.40;;;;;;5046893;28;19932;-66
2022/03/02 11:26:05;;;;;;;;;;;20.90;99.60;;;;;;5050919;28;19944;-65
2022/03/02 11:28:32;;;;;;;;;;;20.80;98.40;;;;;;4976533;28;19937;-66
2022/03/02 11:31:06;;;;;;;;;;;20.70;96.80;;;;;;4986685;28;20369;-67
2022/03/02 11:33:35;;;;;;;;;;;20.70;96.80;;;;;;4985358;28;20804;-64
2022/03/02 11:36:10;;;;;;;;;;;20.60;97.30;;;;;;4988068;28;19937;-64
2022/03/02 11:38:41;;;;;;;;;;;20.60;97.80;;;;;;4988033;28;19930;-64
2022/03/02 11:41:09;;;;;;;;;;;20.60;98.20;;;;;;4987431;28;19929;-66
2022/03/02 11:43:37;;;;;;;;;;;20.60;98.50;;;;;;4985866;28;19933;-63
2022/03/02 11:46:05;;;;;;;;;;;20.60;98.70;;;;;;4986635;28;20015;-67
2022/03/02 11:48:38;;;;;;;;;;;20.60;98.90;;;;;;4987813;28;19926;-64
2022/03/02 11:51:14;;;;;;;;;;;20.60;99.10;;;;;;4986659;28;19934;-64
2022/03/02 11:53:51;;;;;;;;;;;20.50;99.20;;;;;;4990424;28;19932;-66
2022/03/02 11:56:19;;;;;;;;;;;20.50;99.30;;;;;;4988151;28;20853;-64
2022/03/02 11:59:07;;;;;;;;;;;20.50;99.40;;;;;;5000863;28;19939;-63
2022/03/02 12:01:50;;;;;;;;;;;20.50;99.50;;;;;;5048831;28;19925;-59
2022/03/02 12:04:28;;;;;;;;;;;20.50;99.60;;;;;;5046339;28;19925;-60
2022/03/02 12:06:55;;;;;;;;;;;20.50;99.60;;;;;;5047092;28;19951;-61
2022/03/02 12:09:25;;;;;;;;;;;20.50;99.40;;;;;;5045869;28;20356;-58
2022/03/02 12:11:52;;;;;;;;;;;20.60;99.50;;;;;;5046259;28;19933;-61
2022/03/02 12:14:20;;;;;;;;;;;20.70;99.50;;;;;;5045943;28;20746;-60
2022/03/02 12:16:50;;;;;;;;;;;20.70;99.50;;;;;;5044047;28;20035;-60
2022/03/02 12:19:25;;;;;;;;;;;20.80;99.50;;;;;;5041701;28;19936;-58
2022/03/02 12:22:05;;;;;;;;;;;20.90;99.60;;;;;;5038596;28;19945;-58
2022/03/02 12:24:33;;;;;;;;;;;20.90;99.50;;;;;;5038223;28;19933;-59
2022/03/02 12:27:01;;;;;;;;;;;21.00;99.50;;;;;;5041401;28;19951;-58
2022/03/02 12:29:28;;;;;;;;;;;21.00;99.50;;;;;;5042125;28;19929;-60
2022/03/02 12:32:15;;;;;;;;;;;21.00;99.50;;;;;;5043850;28;19929;-59
2022/03/02 12:34:44;;;;;;;;;;;21.00;99.50;;;;;;5043461;28;19928;-60
2022/03/02 12:37:12;;;;;;;;;;;21.00;99.60;;;;;;5044065;28;20005;-60
2022/03/02 12:39:40;;;;;;;;;;;21.00;99.60;;;;;;5041419;28;19933;-61
2022/03/02 12:42:08;;;;;;;;;;;21.00;99.60;;;;;;5041439;28;19929;-60
2022/03/02 12:44:39;;;;;;;;;;;20.90;99.70;;;;;;5042143;28;20173;-59
2022/03/02 12:47:09;;;;;;;;;;;20.90;99.70;;;;;;5043859;28;19936;-62
2022/03/02 12:49:37;;;;;;;;;;;20.90;99.80;;;;;;5043651;28;20080;-59
2022/03/02 12:52:05;;;;;;;;;;;20.90;99.80;;;;;;5039748;28;19945;-61
2022/03/02 12:54:33;;;;;;;;;;;20.80;99.80;;;;;;5040382;28;19933;-59
2022/03/02 12:57:02;;;;;;;;;;;20.80;99.90;;;;;;5043076;28;19999;-59
2022/03/02 12:59:30;;;;;;;;;;;20.80;99.90;;;;;;5046355;28;19929;-60
2022/03/02 13:01:58;;;;;;;;;;;20.80;99.90;;;;;;5046006;28;19928;-59
2022/03/02 13:04:32;;;;;;;;;;;20.70;99.90;;;;;;5050657;28;19936;-60
2022/03/02 13:07:03;;;;;;;;;;;20.70;99.90;;;;;;5051563;28;19929;-61
2022/03/02 13:09:33;;;;;;;;;;;20.70;99.90;;;;;;5051664;28;19932;-61
2022/03/02 13:12:19;;;;;;;;;;;20.70;99.90;;;;;;5048368;28;19925;-61
2022/03/02 13:14:46;;;;;;;;;;;20.70;99.90;;;;;;5047710;28;19940;-59
2022/03/02 13:17:15;;;;;;;;;;;20.70;99.90;;;;;;5044186;28;19933;-59
2022/03/02 13:19:57;;;;;;;;;;;20.60;99.90;;;;;;5043843;28;19932;-58
2022/03/02 13:22:25;;;;;;;;;;;20.60;99.90;;;;;;5045099;28;19932;-60
2022/03/02 13:24:53;;;;;;;;;;;20.70;99.90;;;;;;5043184;28;19933;-60
2022/03/02 13:27:21;;;;;;;;;;;20.60;99.90;;;;;;5047322;28;19929;-60
2022/03/02 13:29:51;;;;;;;;;;;20.60;99.90;;;;;;5044593;28;20479;-60
2022/03/02 13:32:19;;;;;;;;;;;20.60;99.90;;;;;;5043356;28;19936;-60
2022/03/02 13:35:06;;;;;;;;;;;20.70;99.90;;;;;;5041733;28;19940;-61
2022/03/02 13:37:52;;;;;;;;;;;20.80;99.90;;;;;;5042377;28;19939;-60
2022/03/02 13:40:32;;;;;;;;;;;20.90;99.90;;;;;;5047427;28;20431;-61
2022/03/02 13:43:05;;;;;;;;;;;21.00;99.90;;;;;;5041455;28;20436;-60
2022/03/02 13:45:34;;;;;;;;;;;21.10;99.90;;;;;;5043469;28;19925;-60
2022/03/02 13:48:21;;;;;;;;;;;21.10;97.70;;;;;;5042177;28;20474;-59
2022/03/02 13:51:05;;;;;;;;;;;21.20;95.60;;;;;;5040481;28;20313;-58
2022/03/02 13:53:33;;;;;;;;;;;21.10;93.20;;;;;;5043301;28;20332;-60
2022/03/02 13:56:03;;;;;;;;;;;21.00;91.30;;;;;;5043417;28;19925;-59
2022/03/02 13:58:31;;;;;;;;;;;21.00;90.40;;;;;;5038868;28;19932;-60
2022/03/02 14:01:15;;;;;;;;;;;21.00;90.70;;;;;;5039176;28;20726;-60
2022/03/02 14:03:45;;;;;;;;;;;21.00;91.10;;;;;;5039545;28;19948;-59
2022/03/02 14:06:14;;;;;;;;;;;21.00;91.80;;;;;;5041807;28;19925;-60
2022/03/02 14:08:51;;;;;;;;;;;21.10;92.30;;;;;;5044166;28;19931;-64
2022/03/02 14:11:28;;;;;;;;;;;21.10;93.20;;;;;;5038313;28;19928;-66
2022/03/02 14:13:55;;;;;;;;;;;21.10;94.00;;;;;;5038184;28;19928;-62
2022/03/02 14:16:23;;;;;;;;;;;21.20;94.60;;;;;;5038689;28;19933;-59
2022/03/02 14:19:10;;;;;;;;;;;21.10;95.00;;;;;;5044057;28;20170;-60
2022/03/02 14:21:39;;;;;;;;;;;21.10;95.00;;;;;;5045434;28;19928;-59
2022/03/02 14:24:14;;;;;;;;;;;21.10;95.50;;;;;;5039267;28;19971;-58
2022/03/02 14:26:51;;;;;;;;;;;21.00;95.60;;;;;;5044562;28;19944;-59
2022/03/02 14:29:20;;;;;;;;;;;21.00;95.80;;;;;;5041794;28;20404;-63